Essex, Illinois
Current Conditions -  °F | °C
As of 4:15 AM on Tuesday 21 Oct 2014 (Local Time) from KIKK Reporting Station
Overcast Overcast  
Wind Chill: 47°   Ceiling: 5000
Heat Index: 47°   Visibility: 10mi
Dew Point: 43°   Wind: 3mph
Humidity: 87%   Direction: 300°WNW
Pressure: 30.04"   Gusts: NA
Location:  41.18°N, 88.19°W
Report Text: KIKK 210915Z AUTO 30003KT 10SM OVC050 08/06 A3004 RMK AO2 T00830062
Loading
Personal Weather Stations






























Interactive Weather Map
Tropical Storm Tracking
New forecast layout! Learn more

10-Day Weather Forecast

Advertisements
Track Severe Weather on mobile